createdAt,value
2022-10-09T00:01:29.301Z,4.00
2022-10-09T00:03:57.413Z,3.40
2022-10-09T00:06:32.151Z,3.83
2022-10-09T00:09:01.926Z,4.25
2022-10-09T00:11:30.430Z,4.10
2022-10-09T00:13:57.446Z,3.90
2022-10-09T00:16:25.218Z,4.53
2022-10-09T00:18:52.879Z,4.85
2022-10-09T00:21:33.503Z,4.45
2022-10-09T00:24:02.710Z,5.07
2022-10-09T00:26:29.584Z,5.60
2022-10-09T00:28:56.393Z,5.15
2022-10-09T00:31:24.090Z,6.60
2022-10-09T00:33:50.978Z,6.65
2022-10-09T00:36:20.865Z,6.95
2022-10-09T00:38:48.313Z,5.78
2022-10-09T00:41:21.481Z,5.70
2022-10-09T00:43:49.383Z,5.93
2022-10-09T00:46:42.019Z,6.18
2022-10-09T00:49:17.708Z,5.70
2022-10-09T00:51:47.878Z,5.72
2022-10-09T00:54:18.035Z,6.72
2022-10-09T00:56:44.902Z,7.05
2022-10-09T00:59:12.828Z,6.68
2022-10-09T01:01:41.244Z,6.68
2022-10-09T01:04:08.615Z,6.85
2022-10-09T01:06:53.984Z,6.93
2022-10-09T01:09:30.173Z,6.95
2022-10-09T01:12:06.124Z,6.80
2022-10-09T01:14:39.308Z,6.75
2022-10-09T01:17:30.855Z,8.70
2022-10-09T01:20:03.408Z,9.07
2022-10-09T01:22:46.971Z,7.53
2022-10-09T01:25:32.242Z,9.02
2022-10-09T01:28:00.334Z,7.60
2022-10-09T01:30:27.966Z,8.07
2022-10-09T01:32:55.843Z,7.85
2022-10-09T01:35:25.109Z,8.27
2022-10-09T01:37:54.452Z,8.40
2022-10-09T01:40:23.022Z,7.95
2022-10-09T01:42:51.240Z,8.27
2022-10-09T01:45:18.277Z,8.23
2022-10-09T01:47:45.085Z,8.25
2022-10-09T01:50:14.569Z,8.55
2022-10-09T01:52:44.308Z,7.93
2022-10-09T01:55:17.217Z,8.40
2022-10-09T01:57:45.823Z,8.38
2022-10-09T02:00:13.855Z,8.73
2022-10-09T02:02:42.624Z,10.10
2022-10-09T02:05:12.417Z,10.13
2022-10-09T02:07:39.320Z,9.15
2022-10-09T02:10:08.178Z,7.97
2022-10-09T02:12:40.434Z,7.97
2022-10-09T02:15:08.702Z,8.43
2022-10-09T02:17:40.656Z,7.00
2022-10-09T02:20:30.125Z,7.13
2022-10-09T02:23:00.371Z,6.85
2022-10-09T02:25:27.598Z,6.55
2022-10-09T02:27:54.821Z,6.60
2022-10-09T02:30:22.995Z,6.43
2022-10-09T02:32:53.923Z,7.13
2022-10-09T02:35:20.989Z,8.75
2022-10-09T02:37:49.100Z,9.68
2022-10-09T02:40:16.340Z,8.30
2022-10-09T02:42:43.079Z,8.50
2022-10-09T02:45:10.406Z,8.43
2022-10-09T02:47:37.117Z,7.68
2022-10-09T02:50:04.190Z,7.93
2022-10-09T02:52:31.366Z,8.18
2022-10-09T02:54:58.086Z,9.15
2022-10-09T02:57:24.818Z,9.45
2022-10-09T02:59:51.543Z,11.93
2022-10-09T03:02:18.392Z,11.25
2022-10-09T03:04:45.312Z,11.98
2022-10-09T03:07:12.036Z,9.70
2022-10-09T03:09:38.867Z,10.30
2022-10-09T03:12:05.646Z,9.73
2022-10-09T03:14:32.357Z,10.05
2022-10-09T03:16:59.141Z,10.23
2022-10-09T03:19:26.162Z,9.77
2022-10-09T03:21:52.868Z,8.05
2022-10-09T03:24:19.666Z,9.45
2022-10-09T03:26:46.493Z,9.25
2022-10-09T03:29:13.181Z,8.18
2022-10-09T03:31:51.902Z,8.57
2022-10-09T03:34:19.629Z,8.65
2022-10-09T03:36:46.670Z,8.90
2022-10-09T03:39:13.381Z,8.35
2022-10-09T03:41:40.244Z,8.75
2022-10-09T03:44:07.078Z,8.77
2022-10-09T03:46:33.899Z,8.80
2022-10-09T03:49:00.664Z,8.30
2022-10-09T03:51:27.426Z,9.00
2022-10-09T03:53:54.119Z,8.63
2022-10-09T03:56:20.856Z,7.57
2022-10-09T03:58:47.553Z,8.27
2022-10-09T04:01:14.304Z,8.13
2022-10-09T04:03:41.106Z,9.30
2022-10-09T04:06:07.858Z,9.65
2022-10-09T04:08:35.389Z,8.02
2022-10-09T04:11:03.487Z,7.57
2022-10-09T04:13:30.294Z,7.20
2022-10-09T04:15:57.104Z,7.38
2022-10-09T04:18:24.193Z,5.63
2022-10-09T04:20:52.240Z,5.78
2022-10-09T04:23:20.072Z,6.15
2022-10-09T04:25:47.006Z,6.07
2022-10-09T04:28:14.255Z,6.18
2022-10-09T04:30:41.436Z,6.28
2022-10-09T04:33:12.710Z,5.50
2022-10-09T04:35:46.810Z,6.90
2022-10-09T04:38:13.571Z,5.63
2022-10-09T04:40:40.763Z,5.68
2022-10-09T04:43:07.473Z,6.15
2022-10-09T04:45:38.850Z,6.65
2022-10-09T04:48:05.599Z,5.13
2022-10-09T04:50:32.339Z,5.65
2022-10-09T04:52:59.065Z,5.07
2022-10-09T04:55:25.831Z,5.50
2022-10-09T04:57:52.542Z,3.60
2022-10-09T05:00:19.390Z,4.50
2022-10-09T05:02:46.251Z,4.00
2022-10-09T05:05:13.181Z,4.03
2022-10-09T05:07:39.940Z,4.20
2022-10-09T05:10:07.321Z,3.58
2022-10-09T05:12:34.034Z,5.05
2022-10-09T05:15:00.759Z,4.82
2022-10-09T05:17:27.890Z,4.57
2022-10-09T05:19:54.658Z,4.40
2022-10-09T05:22:21.397Z,4.28
2022-10-09T05:24:48.166Z,4.97
2022-10-09T05:27:14.918Z,3.90
2022-10-09T05:29:41.649Z,3.75
2022-10-09T05:32:08.453Z,3.42
2022-10-09T05:34:35.643Z,3.63
2022-10-09T05:37:02.361Z,3.75
2022-10-09T05:39:29.303Z,4.68
2022-10-09T05:41:56.019Z,4.28
2022-10-09T05:44:22.755Z,4.30
2022-10-09T05:46:49.473Z,4.47
2022-10-09T05:49:16.598Z,4.25
2022-10-09T05:51:43.294Z,3.80
2022-10-09T05:54:14.921Z,3.80
2022-10-09T05:56:42.694Z,3.50
2022-10-09T05:59:13.725Z,3.53
2022-10-09T06:01:50.525Z,3.10
2022-10-09T06:04:18.738Z,3.35
2022-10-09T06:06:48.328Z,3.40
2022-10-09T06:09:17.118Z,2.72
2022-10-09T06:11:44.697Z,3.17
2022-10-09T06:14:13.213Z,3.00
2022-10-09T06:16:44.607Z,3.88
2022-10-09T06:19:14.760Z,3.20
2022-10-09T06:21:42.453Z,3.20
2022-10-09T06:24:16.992Z,4.00
2022-10-09T06:26:44.774Z,3.72
2022-10-09T06:29:11.585Z,3.50
2022-10-09T06:31:38.439Z,3.17
2022-10-09T06:34:05.254Z,4.13
2022-10-09T06:36:35.345Z,3.60
2022-10-09T06:39:05.233Z,3.72
2022-10-09T06:41:32.290Z,3.92
2022-10-09T06:44:05.637Z,4.95
2022-10-09T06:46:35.602Z,5.30
2022-10-09T06:49:03.249Z,4.05
2022-10-09T06:51:30.757Z,4.10
2022-10-09T06:53:59.705Z,5.07
2022-10-09T06:56:28.731Z,4.43
2022-10-09T06:58:55.902Z,4.10
2022-10-09T07:01:26.665Z,3.92
2022-10-09T07:03:56.001Z,4.05
2022-10-09T07:06:26.105Z,3.95
2022-10-09T07:08:55.295Z,4.30
2022-10-09T07:11:24.645Z,4.38
2022-10-09T07:13:54.633Z,5.88
2022-10-09T07:16:25.040Z,4.38
2022-10-09T07:18:52.165Z,4.55
2022-10-09T07:21:19.633Z,6.72
2022-10-09T07:23:47.209Z,4.65
2022-10-09T07:26:16.829Z,4.57
2022-10-09T07:28:43.866Z,4.43
2022-10-09T07:31:11.740Z,4.50
2022-10-09T07:33:38.654Z,5.13
2022-10-09T07:36:06.547Z,4.18
2022-10-09T07:38:33.523Z,4.05
2022-10-09T07:41:09.337Z,4.32
2022-10-09T07:43:37.978Z,4.63
2022-10-09T07:46:06.936Z,4.57
2022-10-09T07:48:35.060Z,4.60
2022-10-09T07:51:16.489Z,4.63
2022-10-09T07:53:44.758Z,4.50
2022-10-09T07:56:20.207Z,5.05
2022-10-09T07:58:55.344Z,5.28
2022-10-09T08:01:23.509Z,5.60
2022-10-09T08:03:50.868Z,5.68
2022-10-09T08:06:18.773Z,5.40
2022-10-09T08:08:49.631Z,5.40
2022-10-09T08:11:17.486Z,5.15
2022-10-09T08:13:45.699Z,4.88
2022-10-09T08:16:12.628Z,4.97
2022-10-09T08:18:39.419Z,5.10
2022-10-09T08:21:14.905Z,4.88
2022-10-09T08:23:41.752Z,5.88
2022-10-09T08:26:19.352Z,4.50
2022-10-09T08:28:54.934Z,4.68
2022-10-09T08:31:22.888Z,4.57
2022-10-09T08:33:54.274Z,4.85
2022-10-09T08:36:21.506Z,4.05
2022-10-09T08:38:48.632Z,4.53
2022-10-09T08:41:33.167Z,4.05
2022-10-09T08:44:14.133Z,4.43
2022-10-09T08:47:08.801Z,4.57
2022-10-09T08:50:01.898Z,4.50
2022-10-09T08:52:49.690Z,4.35
2022-10-09T08:55:49.110Z,5.00
2022-10-09T08:58:21.041Z,5.03
2022-10-09T09:01:12.616Z,5.20
2022-10-09T09:03:45.370Z,4.40
2022-10-09T09:06:24.930Z,4.20
2022-10-09T09:09:13.876Z,4.35
2022-10-09T09:11:56.960Z,4.45
2022-10-09T09:14:40.693Z,4.35
2022-10-09T09:17:34.329Z,4.55
2022-10-09T09:20:04.539Z,3.95
2022-10-09T09:22:33.797Z,4.60
2022-10-09T09:25:07.642Z,4.57
2022-10-09T09:30:02.412Z,3.75
2022-10-09T09:32:31.510Z,4.03
2022-10-09T09:35:30.294Z,4.10
2022-10-09T09:37:57.110Z,4.00
2022-10-09T09:40:37.975Z,4.00
2022-10-09T09:43:19.174Z,3.80
2022-10-09T09:45:47.338Z,3.50
2022-10-09T09:48:24.564Z,3.60
2022-10-09T09:51:16.096Z,3.83
2022-10-09T09:53:45.598Z,3.58
2022-10-09T09:56:12.325Z,3.20
2022-10-09T09:58:50.879Z,3.63
2022-10-09T10:01:29.286Z,3.00
2022-10-09T10:04:01.769Z,3.50
2022-10-09T10:06:35.555Z,3.25
2022-10-09T10:11:34.876Z,3.10
2022-10-09T10:14:09.256Z,3.60
2022-10-09T10:16:40.222Z,2.83
2022-10-09T10:19:17.879Z,2.60
2022-10-09T10:21:49.261Z,2.78
2022-10-09T10:24:22.811Z,2.65
2022-10-09T10:26:56.242Z,2.80
2022-10-09T10:29:38.874Z,2.60
2022-10-09T10:32:15.779Z,2.88
2022-10-09T10:34:57.733Z,2.30
2022-10-09T10:37:45.162Z,2.47
2022-10-09T10:40:27.434Z,2.38
2022-10-09T10:43:09.446Z,2.15
2022-10-09T10:46:00.256Z,2.03
2022-10-09T10:48:31.063Z,1.95
2022-10-09T10:51:19.037Z,2.15
2022-10-09T10:53:52.571Z,1.70
2022-10-09T10:56:42.381Z,1.80
2022-10-09T10:59:30.787Z,1.52
2022-10-09T11:02:40.914Z,2.13
2022-10-09T11:05:28.007Z,1.95
2022-10-09T11:08:00.048Z,1.60
2022-10-09T11:10:33.419Z,1.98
2022-10-09T11:13:18.659Z,1.88
2022-10-09T11:16:13.131Z,1.75
2022-10-09T11:19:31.262Z,1.83
2022-10-09T11:22:17.387Z,1.70
2022-10-09T11:25:02.755Z,1.88
2022-10-09T11:27:50.396Z,1.65
2022-10-09T11:30:18.166Z,1.70
2022-10-09T11:33:10.301Z,1.58
2022-10-09T11:35:46.640Z,1.60
2022-10-09T11:38:25.532Z,1.75
2022-10-09T11:40:53.061Z,1.70
2022-10-09T11:43:25.826Z,1.90
2022-10-09T11:46:05.002Z,2.00
2022-10-09T11:48:45.110Z,1.95
2022-10-09T11:51:24.815Z,1.60
2022-10-09T11:53:53.283Z,1.80
2022-10-09T11:56:31.947Z,2.10
2022-10-09T11:59:07.181Z,1.67
2022-10-09T12:01:39.749Z,1.70
2022-10-09T12:04:12.378Z,1.63
2022-10-09T12:06:55.219Z,1.70
2022-10-09T12:09:44.549Z,1.60
2022-10-09T12:12:17.393Z,2.00
2022-10-09T12:14:48.554Z,1.70
2022-10-09T12:17:24.188Z,1.55
2022-10-09T12:19:57.381Z,1.48
2022-10-09T12:22:32.620Z,1.80
2022-10-09T12:25:23.984Z,1.60
2022-10-09T12:27:54.811Z,1.63
2022-10-09T12:30:25.201Z,1.90
2022-10-09T12:33:12.070Z,1.80
2022-10-09T12:35:41.253Z,1.83
2022-10-09T12:38:28.934Z,1.90
2022-10-09T12:41:00.330Z,2.00
2022-10-09T12:43:27.251Z,1.67
2022-10-09T12:45:54.620Z,1.70
2022-10-09T12:48:25.774Z,1.70
2022-10-09T12:50:53.487Z,1.70
2022-10-09T12:53:26.248Z,2.22
2022-10-09T12:55:58.466Z,1.60
2022-10-09T12:58:36.019Z,1.80
2022-10-09T13:01:11.595Z,1.45
2022-10-09T13:03:42.957Z,1.85
2022-10-09T13:06:12.718Z,1.70
2022-10-09T13:08:40.661Z,1.65
2022-10-09T13:11:12.711Z,1.80
2022-10-09T13:13:39.989Z,1.52
2022-10-09T13:16:10.455Z,2.47
2022-10-09T13:18:38.305Z,1.80
2022-10-09T13:21:31.344Z,1.40
2022-10-09T13:24:11.895Z,1.83
2022-10-09T13:26:40.658Z,1.40
2022-10-09T13:29:08.225Z,1.55
2022-10-09T13:31:36.892Z,1.50
2022-10-09T13:34:14.286Z,1.63
2022-10-09T13:36:41.533Z,1.67
2022-10-09T13:39:14.446Z,1.90
2022-10-09T13:41:43.198Z,1.65
2022-10-09T13:44:10.287Z,1.60
2022-10-09T13:46:37.009Z,1.50
2022-10-09T13:49:03.847Z,1.50
2022-10-09T13:51:31.942Z,1.42
2022-10-09T13:53:59.091Z,1.52
2022-10-09T13:56:26.094Z,1.45
2022-10-09T13:58:52.890Z,1.60
2022-10-09T14:01:19.796Z,1.48
2022-10-09T14:03:46.655Z,1.55
2022-10-09T14:06:13.411Z,1.52
2022-10-09T14:08:40.364Z,1.90
2022-10-09T14:11:07.198Z,1.70
2022-10-09T14:13:34.098Z,1.60
2022-10-09T14:16:05.694Z,1.80
2022-10-09T14:18:32.782Z,1.83
2022-10-09T14:20:59.510Z,1.60
2022-10-09T14:23:26.265Z,1.75
2022-10-09T14:25:53.010Z,1.55
2022-10-09T14:28:19.794Z,1.42
2022-10-09T14:30:46.597Z,1.55
2022-10-09T14:33:13.431Z,1.52
2022-10-09T14:35:40.182Z,1.42
2022-10-09T14:38:06.886Z,1.67
2022-10-09T14:40:33.625Z,1.45
2022-10-09T14:43:00.591Z,1.77
2022-10-09T14:45:28.934Z,1.45
2022-10-09T14:47:56.689Z,1.42
2022-10-09T14:50:23.385Z,1.80
2022-10-09T14:52:50.348Z,1.33
2022-10-09T14:55:17.421Z,1.50
2022-10-09T14:57:44.339Z,1.35
2022-10-09T15:00:11.794Z,1.40
2022-10-09T15:02:38.718Z,1.50
2022-10-09T15:05:05.761Z,1.60
2022-10-09T15:07:33.636Z,1.20
2022-10-09T15:10:00.443Z,1.50
2022-10-09T15:12:27.218Z,1.40
2022-10-09T15:14:53.987Z,1.30
2022-10-09T15:17:20.675Z,1.50
2022-10-09T15:19:47.550Z,1.60
2022-10-09T15:22:14.258Z,1.42
2022-10-09T15:24:41.367Z,1.33
2022-10-09T15:27:08.170Z,1.33
2022-10-09T15:29:34.918Z,1.30
2022-10-09T15:32:02.116Z,1.80
2022-10-09T15:34:29.379Z,1.20
2022-10-09T15:36:56.236Z,1.20
2022-10-09T15:39:23.606Z,1.60
2022-10-09T15:41:50.322Z,1.60
2022-10-09T15:44:19.654Z,1.38
2022-10-09T15:46:47.983Z,1.48
2022-10-09T15:49:14.728Z,1.60
2022-10-09T15:51:41.550Z,1.63
2022-10-09T15:54:08.439Z,1.50
2022-10-09T15:56:39.710Z,1.70
2022-10-09T15:59:09.328Z,1.30
2022-10-09T16:01:36.170Z,1.40
2022-10-09T16:04:02.941Z,1.80
2022-10-09T16:06:29.789Z,1.65
2022-10-09T16:08:58.739Z,2.10
2022-10-09T16:11:26.861Z,1.60
2022-10-09T16:13:55.180Z,1.50
2022-10-09T16:16:27.473Z,1.60
2022-10-09T16:18:55.697Z,1.90
2022-10-09T16:21:26.048Z,1.48
2022-10-09T16:23:58.079Z,1.70
2022-10-09T16:26:26.841Z,2.00
2022-10-09T16:28:53.649Z,2.00
2022-10-09T16:31:30.125Z,1.63
2022-10-09T16:33:57.852Z,1.42
2022-10-09T16:36:24.656Z,1.65
2022-10-09T16:38:51.425Z,1.58
2022-10-09T16:41:20.513Z,1.58
2022-10-09T16:43:49.611Z,1.73
2022-10-09T16:46:24.046Z,1.63
2022-10-09T16:48:52.494Z,1.65
2022-10-09T16:51:22.638Z,1.60
2022-10-09T16:53:51.885Z,1.92
2022-10-09T16:56:21.166Z,1.73
2022-10-09T16:58:48.279Z,1.60
2022-10-09T17:01:15.624Z,1.80
2022-10-09T17:03:42.926Z,1.60
2022-10-09T17:06:13.066Z,1.13
2022-10-09T17:08:40.486Z,1.30
2022-10-09T17:11:09.253Z,1.88
2022-10-09T17:13:36.665Z,1.60
2022-10-09T17:16:08.135Z,1.80
2022-10-09T17:18:36.277Z,1.77
2022-10-09T17:21:08.949Z,1.40
2022-10-09T17:23:36.483Z,1.38
2022-10-09T17:26:18.212Z,1.40
2022-10-09T17:28:46.258Z,2.00
2022-10-09T17:31:16.399Z,1.63
2022-10-09T17:33:45.987Z,1.65
2022-10-09T17:36:25.493Z,1.73
2022-10-09T17:38:52.982Z,1.92
2022-10-09T17:41:23.531Z,1.45
2022-10-09T17:43:54.969Z,1.98
2022-10-09T17:46:24.018Z,1.75
2022-10-09T17:48:53.747Z,1.65
2022-10-09T17:51:35.643Z,1.70
2022-10-09T17:54:12.200Z,1.73
2022-10-09T17:56:39.506Z,1.83
2022-10-09T17:59:07.297Z,1.30
2022-10-09T18:01:34.374Z,1.50
2022-10-09T18:04:01.775Z,2.00
2022-10-09T18:06:32.634Z,2.72
2022-10-09T18:08:59.748Z,1.70
2022-10-09T18:11:28.417Z,1.83
2022-10-09T18:13:55.735Z,1.60
2022-10-09T18:16:35.377Z,2.25
2022-10-09T18:19:12.202Z,4.35
2022-10-09T18:21:45.047Z,4.00
2022-10-09T18:24:13.379Z,2.30
2022-10-09T18:26:41.186Z,2.42
2022-10-09T18:29:08.806Z,2.10
2022-10-09T18:31:35.726Z,2.00
2022-10-09T18:34:02.445Z,2.10
2022-10-09T18:36:34.478Z,2.25
2022-10-09T18:39:13.211Z,2.33
2022-10-09T18:41:40.376Z,2.58
2022-10-09T18:44:12.561Z,2.10
2022-10-09T18:46:42.686Z,2.03
2022-10-09T18:49:11.763Z,2.20
2022-10-09T18:51:40.675Z,2.35
2022-10-09T18:54:08.893Z,2.20
2022-10-09T18:56:36.903Z,2.58
2022-10-09T18:59:08.405Z,2.47
2022-10-09T19:01:35.445Z,2.15
2022-10-09T19:04:02.395Z,2.22
2022-10-09T19:06:30.575Z,2.67
2022-10-09T19:09:00.601Z,4.60
2022-10-09T19:11:29.783Z,5.13
2022-10-09T19:13:59.589Z,4.32
2022-10-09T19:16:31.539Z,4.00
2022-10-09T19:18:58.322Z,2.20
2022-10-09T19:21:25.259Z,2.20
2022-10-09T19:23:53.377Z,2.33
2022-10-09T19:26:22.662Z,3.25
2022-10-09T19:28:49.520Z,2.20
2022-10-09T19:31:16.357Z,2.55
2022-10-09T19:33:43.612Z,2.78
2022-10-09T19:36:12.979Z,2.70
2022-10-09T19:38:40.485Z,2.10
2022-10-09T19:41:10.495Z,2.10
2022-10-09T19:43:37.613Z,1.90
2022-10-09T19:46:20.740Z,2.60
2022-10-09T19:48:47.458Z,2.13
2022-10-09T19:51:17.078Z,2.58
2022-10-09T19:53:44.248Z,2.17
2022-10-09T19:56:17.279Z,2.70
2022-10-09T19:58:45.946Z,2.20
2022-10-09T20:01:15.377Z,2.10
2022-10-09T20:03:43.579Z,2.42
2022-10-09T20:06:11.455Z,2.58
2022-10-09T20:08:40.576Z,2.25
2022-10-09T20:11:08.664Z,2.63
2022-10-09T20:13:37.307Z,3.17
2022-10-09T20:16:06.592Z,3.20
2022-10-09T20:18:34.830Z,2.47
2022-10-09T20:21:01.731Z,2.58
2022-10-09T20:23:28.541Z,2.90
2022-10-09T20:26:09.469Z,2.55
2022-10-09T20:28:38.404Z,2.47
2022-10-09T20:31:06.883Z,2.22
2022-10-09T20:33:38.426Z,2.33
2022-10-09T20:36:06.254Z,2.30
2022-10-09T20:38:33.782Z,2.58
2022-10-09T20:41:07.813Z,3.10
2022-10-09T20:43:35.798Z,2.28
2022-10-09T20:46:10.460Z,2.50
2022-10-09T20:48:37.203Z,2.75
2022-10-09T20:51:04.131Z,2.92
2022-10-09T20:53:31.441Z,3.08
2022-10-09T20:56:07.309Z,2.60
2022-10-09T20:58:34.789Z,2.88
2022-10-09T21:01:05.934Z,2.22
2022-10-09T21:03:33.524Z,2.40
2022-10-09T21:06:06.582Z,3.05
2022-10-09T21:08:34.061Z,3.00
2022-10-09T21:11:08.858Z,2.83
2022-10-09T21:13:37.016Z,2.63
2022-10-09T21:16:08.996Z,2.80
2022-10-09T21:18:36.665Z,2.40
2022-10-09T21:21:12.088Z,2.92
2022-10-09T21:23:39.292Z,2.65
2022-10-09T21:26:11.730Z,2.70
2022-10-09T21:28:38.867Z,2.28
2022-10-09T21:31:14.991Z,2.63
2022-10-09T21:33:41.755Z,2.42
2022-10-09T21:36:34.169Z,2.67
2022-10-09T21:39:01.127Z,2.70
2022-10-09T21:41:28.311Z,2.70
2022-10-09T21:43:55.047Z,2.75
2022-10-09T21:46:22.737Z,2.42
2022-10-09T21:48:49.466Z,2.72
2022-10-09T21:51:16.190Z,3.13
2022-10-09T21:53:42.955Z,2.95
2022-10-09T21:56:09.902Z,2.50
2022-10-09T21:58:37.665Z,2.58
2022-10-09T22:01:05.293Z,2.60
2022-10-09T22:03:34.439Z,2.50
2022-10-09T22:06:05.101Z,2.78
2022-10-09T22:08:31.905Z,2.70
2022-10-09T22:10:58.635Z,3.20
2022-10-09T22:13:25.486Z,2.88
2022-10-09T22:15:52.264Z,2.80
2022-10-09T22:18:19.542Z,3.55
2022-10-09T22:20:49.374Z,2.28
2022-10-09T22:23:18.296Z,2.40
2022-10-09T22:25:54.645Z,2.95
2022-10-09T22:28:21.411Z,2.80
2022-10-09T22:30:48.192Z,2.60
2022-10-09T22:33:14.901Z,2.75
2022-10-09T22:35:42.318Z,2.40
2022-10-09T22:38:09.044Z,2.67
2022-10-09T22:40:35.754Z,2.47
2022-10-09T22:43:02.488Z,2.40
2022-10-09T22:45:29.341Z,2.83
2022-10-09T22:47:56.091Z,2.35
2022-10-09T22:50:22.794Z,2.63
2022-10-09T22:52:50.423Z,2.53
2022-10-09T22:55:17.333Z,2.20
2022-10-09T22:57:44.034Z,2.72
2022-10-09T23:00:11.551Z,2.55
2022-10-09T23:02:38.287Z,2.70
2022-10-09T23:05:05.330Z,2.70
2022-10-09T23:07:32.049Z,3.08
2022-10-09T23:09:58.855Z,3.15
2022-10-09T23:12:25.545Z,2.80
2022-10-09T23:14:53.394Z,3.35
2022-10-09T23:17:20.096Z,3.08
2022-10-09T23:19:48.018Z,2.70
2022-10-09T23:22:14.687Z,2.83
2022-10-09T23:24:41.479Z,2.80
2022-10-09T23:27:08.201Z,2.65
2022-10-09T23:29:34.902Z,2.50
2022-10-09T23:32:01.574Z,2.60
2022-10-09T23:34:29.242Z,2.58
2022-10-09T23:36:55.949Z,3.22
2022-10-09T23:39:23.031Z,2.95
2022-10-09T23:41:49.746Z,2.30
2022-10-09T23:44:21.223Z,2.55
2022-10-09T23:46:48.928Z,2.70
2022-10-09T23:49:15.647Z,3.00
2022-10-09T23:51:42.318Z,2.42
2022-10-09T23:54:09.814Z,2.47
2022-10-09T23:56:37.277Z,2.50
2022-10-09T23:59:08.248Z,2.70
